sensor_id;sensor_type;location;lat;lon;timestamp;P1;durP1;ratioP1;P2;durP2;ratioP2
67191;SDS011;54120;53.504;49.426;2023-08-31T00:00:55;2.40;;;2.20;;
67191;SDS011;54120;53.504;49.426;2023-08-31T00:03:21;3.08;;;2.20;;
67191;SDS011;54120;53.504;49.426;2023-08-31T00:05:47;2.88;;;2.42;;
67191;SDS011;54120;53.504;49.426;2023-08-31T00:08:16;3.65;;;3.08;;
67191;SDS011;54120;53.504;49.426;2023-08-31T00:10:43;6.40;;;4.45;;
67191;SDS011;54120;53.504;49.426;2023-08-31T00:13:09;5.40;;;3.47;;
67191;SDS011;54120;53.504;49.426;2023-08-31T00:15:35;4.05;;;3.28;;
67191;SDS011;54120;53.504;49.426;2023-08-31T00:18:02;5.45;;;4.03;;
67191;SDS011;54120;53.504;49.426;2023-08-31T00:20:31;2.58;;;2.30;;
67191;SDS011;54120;53.504;49.426;2023-08-31T00:22:59;2.53;;;2.33;;
67191;SDS011;54120;53.504;49.426;2023-08-31T00:25:25;3.55;;;2.20;;
67191;SDS011;54120;53.504;49.426;2023-08-31T00:27:52;5.07;;;2.25;;
67191;SDS011;54120;53.504;49.426;2023-08-31T00:30:20;3.72;;;2.47;;
67191;SDS011;54120;53.504;49.426;2023-08-31T00:32:46;5.38;;;2.35;;
67191;SDS011;54120;53.504;49.426;2023-08-31T00:35:19;3.92;;;2.72;;
67191;SDS011;54120;53.504;49.426;2023-08-31T00:37:44;6.47;;;2.38;;
67191;SDS011;54120;53.504;49.426;2023-08-31T00:40:11;2.45;;;2.22;;
67191;SDS011;54120;53.504;49.426;2023-08-31T00:42:39;3.35;;;2.42;;
67191;SDS011;54120;53.504;49.426;2023-08-31T00:45:05;3.90;;;2.35;;
67191;SDS011;54120;53.504;49.426;2023-08-31T00:47:32;3.65;;;2.53;;
67191;SDS011;54120;53.504;49.426;2023-08-31T00:49:58;3.58;;;2.08;;
67191;SDS011;54120;53.504;49.426;2023-08-31T00:52:25;6.40;;;2.42;;
67191;SDS011;54120;53.504;49.426;2023-08-31T00:54:51;2.45;;;2.22;;
67191;SDS011;54120;53.504;49.426;2023-08-31T00:57:18;6.10;;;2.40;;
67191;SDS011;54120;53.504;49.426;2023-08-31T00:59:45;6.07;;;2.65;;
67191;SDS011;54120;53.504;49.426;2023-08-31T01:02:14;2.35;;;2.15;;
67191;SDS011;54120;53.504;49.426;2023-08-31T01:05:25;3.90;;;2.35;;
67191;SDS011;54120;53.504;49.426;2023-08-31T01:10:40;2.65;;;2.45;;
67191;SDS011;54120;53.504;49.426;2023-08-31T01:13:14;4.97;;;2.45;;
67191;SDS011;54120;53.504;49.426;2023-08-31T01:15:45;2.83;;;2.53;;
67191;SDS011;54120;53.504;49.426;2023-08-31T01:18:15;7.97;;;2.40;;
67191;SDS011;54120;53.504;49.426;2023-08-31T01:23:18;2.95;;;2.42;;
67191;SDS011;54120;53.504;49.426;2023-08-31T01:25:45;3.00;;;2.60;;
67191;SDS011;54120;53.504;49.426;2023-08-31T01:28:14;4.32;;;2.67;;
67191;SDS011;54120;53.504;49.426;2023-08-31T01:30:42;2.88;;;2.50;;
67191;SDS011;54120;53.504;49.426;2023-08-31T01:33:08;3.20;;;2.55;;
67191;SDS011;54120;53.504;49.426;2023-08-31T01:35:38;3.15;;;2.50;;
67191;SDS011;54120;53.504;49.426;2023-08-31T01:38:09;3.15;;;2.47;;
67191;SDS011;54120;53.504;49.426;2023-08-31T01:40:46;4.70;;;2.55;;
67191;SDS011;54120;53.504;49.426;2023-08-31T01:43:18;2.38;;;2.17;;
67191;SDS011;54120;53.504;49.426;2023-08-31T01:45:46;4.65;;;2.40;;
67191;SDS011;54120;53.504;49.426;2023-08-31T01:48:13;6.05;;;2.92;;
67191;SDS011;54120;53.504;49.426;2023-08-31T01:50:40;3.03;;;2.55;;
67191;SDS011;54120;53.504;49.426;2023-08-31T01:53:07;4.40;;;2.45;;
67191;SDS011;54120;53.504;49.426;2023-08-31T01:55:32;5.20;;;2.80;;
67191;SDS011;54120;53.504;49.426;2023-08-31T01:57:58;4.40;;;2.60;;
67191;SDS011;54120;53.504;49.426;2023-08-31T02:00:25;6.75;;;2.88;;
67191;SDS011;54120;53.504;49.426;2023-08-31T02:02:51;3.30;;;2.47;;
67191;SDS011;54120;53.504;49.426;2023-08-31T02:05:17;4.00;;;2.50;;
67191;SDS011;54120;53.504;49.426;2023-08-31T02:07:43;3.50;;;2.83;;
67191;SDS011;54120;53.504;49.426;2023-08-31T02:10:09;5.22;;;2.95;;
67191;SDS011;54120;53.504;49.426;2023-08-31T02:12:36;3.55;;;2.50;;
67191;SDS011;54120;53.504;49.426;2023-08-31T02:15:05;6.22;;;2.60;;
67191;SDS011;54120;53.504;49.426;2023-08-31T02:17:32;3.03;;;2.63;;
67191;SDS011;54120;53.504;49.426;2023-08-31T02:20:00;3.78;;;2.60;;
67191;SDS011;54120;53.504;49.426;2023-08-31T02:22:27;3.13;;;2.70;;
67191;SDS011;54120;53.504;49.426;2023-08-31T02:24:53;2.85;;;2.50;;
67191;SDS011;54120;53.504;49.426;2023-08-31T02:27:19;6.38;;;2.60;;
67191;SDS011;54120;53.504;49.426;2023-08-31T02:29:45;5.88;;;2.70;;
67191;SDS011;54120;53.504;49.426;2023-08-31T02:32:12;5.13;;;2.78;;
67191;SDS011;54120;53.504;49.426;2023-08-31T02:34:38;3.00;;;2.67;;
67191;SDS011;54120;53.504;49.426;2023-08-31T02:37:03;3.17;;;2.80;;
67191;SDS011;54120;53.504;49.426;2023-08-31T02:39:29;5.68;;;2.45;;
67191;SDS011;54120;53.504;49.426;2023-08-31T02:41:56;3.55;;;2.90;;
67191;SDS011;54120;53.504;49.426;2023-08-31T02:44:22;4.25;;;2.78;;
67191;SDS011;54120;53.504;49.426;2023-08-31T02:46:48;5.80;;;2.80;;
67191;SDS011;54120;53.504;49.426;2023-08-31T02:49:14;5.65;;;3.08;;
67191;SDS011;54120;53.504;49.426;2023-08-31T02:51:40;4.93;;;3.05;;
67191;SDS011;54120;53.504;49.426;2023-08-31T02:54:07;3.22;;;2.92;;
67191;SDS011;54120;53.504;49.426;2023-08-31T02:56:33;4.97;;;2.90;;
67191;SDS011;54120;53.504;49.426;2023-08-31T02:58:59;3.70;;;3.10;;
67191;SDS011;54120;53.504;49.426;2023-08-31T03:01:25;3.78;;;2.67;;
67191;SDS011;54120;53.504;49.426;2023-08-31T03:03:51;3.60;;;3.17;;
67191;SDS011;54120;53.504;49.426;2023-08-31T03:06:17;3.33;;;2.78;;
67191;SDS011;54120;53.504;49.426;2023-08-31T03:08:43;4.35;;;2.75;;
67191;SDS011;54120;53.504;49.426;2023-08-31T03:11:09;10.65;;;3.15;;
67191;SDS011;54120;53.504;49.426;2023-08-31T03:13:35;3.40;;;2.80;;
67191;SDS011;54120;53.504;49.426;2023-08-31T03:16:01;2.88;;;2.67;;
67191;SDS011;54120;53.504;49.426;2023-08-31T03:18:28;5.45;;;2.42;;
67191;SDS011;54120;53.504;49.426;2023-08-31T03:20:54;2.70;;;2.47;;
67191;SDS011;54120;53.504;49.426;2023-08-31T03:23:21;3.25;;;2.65;;
67191;SDS011;54120;53.504;49.426;2023-08-31T03:25:47;4.50;;;2.30;;
67191;SDS011;54120;53.504;49.426;2023-08-31T03:28:13;3.25;;;2.30;;
67191;SDS011;54120;53.504;49.426;2023-08-31T03:30:39;2.70;;;2.10;;
67191;SDS011;54120;53.504;49.426;2023-08-31T03:33:06;2.90;;;2.35;;
67191;SDS011;54120;53.504;49.426;2023-08-31T03:35:32;4.97;;;2.03;;
67191;SDS011;54120;53.504;49.426;2023-08-31T03:37:58;1.92;;;1.83;;
67191;SDS011;54120;53.504;49.426;2023-08-31T03:40:26;2.45;;;2.00;;
67191;SDS011;54120;53.504;49.426;2023-08-31T03:42:52;3.55;;;2.08;;
67191;SDS011;54120;53.504;49.426;2023-08-31T03:45:19;3.03;;;2.08;;
67191;SDS011;54120;53.504;49.426;2023-08-31T03:47:46;2.20;;;2.00;;
67191;SDS011;54120;53.504;49.426;2023-08-31T03:50:12;7.75;;;2.03;;
67191;SDS011;54120;53.504;49.426;2023-08-31T03:52:38;2.58;;;2.05;;
67191;SDS011;54120;53.504;49.426;2023-08-31T03:55:04;2.83;;;1.95;;
67191;SDS011;54120;53.504;49.426;2023-08-31T03:57:30;2.20;;;2.00;;
67191;SDS011;54120;53.504;49.426;2023-08-31T03:59:56;4.30;;;2.10;;
67191;SDS011;54120;53.504;49.426;2023-08-31T04:02:23;4.78;;;2.10;;
67191;SDS011;54120;53.504;49.426;2023-08-31T04:04:49;4.82;;;1.98;;
67191;SDS011;54120;53.504;49.426;2023-08-31T04:07:14;5.25;;;1.90;;
67191;SDS011;54120;53.504;49.426;2023-08-31T04:09:41;2.63;;;1.85;;
67191;SDS011;54120;53.504;49.426;2023-08-31T04:12:07;3.15;;;1.90;;
67191;SDS011;54120;53.504;49.426;2023-08-31T04:14:33;2.33;;;1.90;;
67191;SDS011;54120;53.504;49.426;2023-08-31T04:16:59;3.50;;;1.70;;
67191;SDS011;54120;53.504;49.426;2023-08-31T04:19:25;3.17;;;1.70;;
67191;SDS011;54120;53.504;49.426;2023-08-31T04:21:51;2.53;;;1.70;;
67191;SDS011;54120;53.504;49.426;2023-08-31T04:24:17;2.38;;;1.73;;
67191;SDS011;54120;53.504;49.426;2023-08-31T04:26:43;1.98;;;1.77;;
67191;SDS011;54120;53.504;49.426;2023-08-31T04:29:10;1.92;;;1.70;;
67191;SDS011;54120;53.504;49.426;2023-08-31T04:31:36;1.80;;;1.70;;
67191;SDS011;54120;53.504;49.426;2023-08-31T04:34:03;1.90;;;1.80;;
67191;SDS011;54120;53.504;49.426;2023-08-31T04:36:29;1.70;;;1.60;;
67191;SDS011;54120;53.504;49.426;2023-08-31T04:38:55;1.98;;;1.73;;
67191;SDS011;54120;53.504;49.426;2023-08-31T04:41:22;2.03;;;1.80;;
67191;SDS011;54120;53.504;49.426;2023-08-31T04:43:48;2.10;;;1.90;;
67191;SDS011;54120;53.504;49.426;2023-08-31T04:46:14;1.90;;;1.80;;
67191;SDS011;54120;53.504;49.426;2023-08-31T04:48:40;5.68;;;2.00;;
67191;SDS011;54120;53.504;49.426;2023-08-31T04:51:06;5.88;;;2.05;;
67191;SDS011;54120;53.504;49.426;2023-08-31T04:53:32;5.38;;;2.05;;
67191;SDS011;54120;53.504;49.426;2023-08-31T04:55:58;1.92;;;1.80;;
67191;SDS011;54120;53.504;49.426;2023-08-31T04:58:24;3.95;;;2.08;;
67191;SDS011;54120;53.504;49.426;2023-08-31T05:00:53;3.42;;;1.70;;
67191;SDS011;54120;53.504;49.426;2023-08-31T05:03:19;5.10;;;1.77;;
67191;SDS011;54120;53.504;49.426;2023-08-31T05:05:45;1.90;;;1.80;;
67191;SDS011;54120;53.504;49.426;2023-08-31T05:08:11;2.30;;;1.70;;
67191;SDS011;54120;53.504;49.426;2023-08-31T05:10:37;2.67;;;1.80;;
67191;SDS011;54120;53.504;49.426;2023-08-31T05:13:03;3.05;;;1.95;;
67191;SDS011;54120;53.504;49.426;2023-08-31T05:15:29;2.08;;;1.73;;
67191;SDS011;54120;53.504;49.426;2023-08-31T05:17:55;2.00;;;1.90;;
67191;SDS011;54120;53.504;49.426;2023-08-31T05:20:22;3.25;;;2.15;;
67191;SDS011;54120;53.504;49.426;2023-08-31T05:22:49;2.67;;;1.90;;
67191;SDS011;54120;53.504;49.426;2023-08-31T05:25:15;3.17;;;1.92;;
67191;SDS011;54120;53.504;49.426;2023-08-31T05:27:43;2.80;;;1.85;;
67191;SDS011;54120;53.504;49.426;2023-08-31T05:30:10;5.88;;;2.63;;
67191;SDS011;54120;53.504;49.426;2023-08-31T05:32:37;5.35;;;2.47;;
67191;SDS011;54120;53.504;49.426;2023-08-31T05:35:03;3.58;;;2.10;;
67191;SDS011;54120;53.504;49.426;2023-08-31T05:37:33;2.95;;;2.53;;
67191;SDS011;54120;53.504;49.426;2023-08-31T05:40:01;3.50;;;2.55;;
67191;SDS011;54120;53.504;49.426;2023-08-31T05:42:31;2.53;;;1.98;;
67191;SDS011;54120;53.504;49.426;2023-08-31T05:44:58;1.90;;;1.80;;
67191;SDS011;54120;53.504;49.426;2023-08-31T05:47:24;1.88;;;1.77;;
67191;SDS011;54120;53.504;49.426;2023-08-31T05:49:50;3.63;;;2.35;;
67191;SDS011;54120;53.504;49.426;2023-08-31T05:52:16;3.70;;;1.83;;
67191;SDS011;54120;53.504;49.426;2023-08-31T05:54:42;2.72;;;1.80;;
67191;SDS011;54120;53.504;49.426;2023-08-31T05:57:08;2.72;;;2.33;;
67191;SDS011;54120;53.504;49.426;2023-08-31T05:59:34;4.43;;;2.33;;
67191;SDS011;54120;53.504;49.426;2023-08-31T06:02:00;3.10;;;2.80;;
67191;SDS011;54120;53.504;49.426;2023-08-31T06:04:26;1.70;;;1.60;;
67191;SDS011;54120;53.504;49.426;2023-08-31T06:06:52;3.35;;;1.83;;
67191;SDS011;54120;53.504;49.426;2023-08-31T06:09:19;3.17;;;2.30;;
67191;SDS011;54120;53.504;49.426;2023-08-31T06:11:45;2.00;;;1.90;;
67191;SDS011;54120;53.504;49.426;2023-08-31T06:14:11;2.55;;;2.30;;
67191;SDS011;54120;53.504;49.426;2023-08-31T06:16:37;2.20;;;2.05;;
67191;SDS011;54120;53.504;49.426;2023-08-31T06:19:04;3.05;;;2.08;;
67191;SDS011;54120;53.504;49.426;2023-08-31T06:21:34;3.33;;;1.83;;
67191;SDS011;54120;53.504;49.426;2023-08-31T06:24:00;2.22;;;1.98;;
67191;SDS011;54120;53.504;49.426;2023-08-31T06:26:26;2.13;;;1.80;;
67191;SDS011;54120;53.504;49.426;2023-08-31T06:28:52;2.83;;;2.10;;
67191;SDS011;54120;53.504;49.426;2023-08-31T06:31:19;2.13;;;2.03;;
67191;SDS011;54120;53.504;49.426;2023-08-31T06:33:45;1.85;;;1.75;;
67191;SDS011;54120;53.504;49.426;2023-08-31T06:36:11;2.08;;;1.95;;
67191;SDS011;54120;53.504;49.426;2023-08-31T06:38:37;4.13;;;3.83;;
67191;SDS011;54120;53.504;49.426;2023-08-31T06:41:03;2.65;;;2.00;;
67191;SDS011;54120;53.504;49.426;2023-08-31T06:43:29;2.70;;;1.80;;
67191;SDS011;54120;53.504;49.426;2023-08-31T06:45:56;2.15;;;1.67;;
67191;SDS011;54120;53.504;49.426;2023-08-31T06:48:23;3.28;;;1.50;;
67191;SDS011;54120;53.504;49.426;2023-08-31T06:50:50;3.30;;;1.70;;
67191;SDS011;54120;53.504;49.426;2023-08-31T06:53:16;5.57;;;1.90;;
67191;SDS011;54120;53.504;49.426;2023-08-31T06:55:42;1.60;;;1.50;;
67191;SDS011;54120;53.504;49.426;2023-08-31T06:58:08;3.25;;;1.73;;
67191;SDS011;54120;53.504;49.426;2023-08-31T07:00:34;2.58;;;1.65;;
67191;SDS011;54120;53.504;49.426;2023-08-31T07:03:00;1.70;;;1.60;;
67191;SDS011;54120;53.504;49.426;2023-08-31T07:05:26;1.90;;;1.80;;
67191;SDS011;54120;53.504;49.426;2023-08-31T07:07:55;1.80;;;1.70;;
67191;SDS011;54120;53.504;49.426;2023-08-31T07:10:21;2.15;;;1.58;;
67191;SDS011;54120;53.504;49.426;2023-08-31T07:12:47;2.35;;;1.60;;
67191;SDS011;54120;53.504;49.426;2023-08-31T07:15:13;1.90;;;1.75;;
67191;SDS011;54120;53.504;49.426;2023-08-31T07:17:39;1.73;;;1.63;;
67191;SDS011;54120;53.504;49.426;2023-08-31T07:20:05;1.90;;;1.73;;
67191;SDS011;54120;53.504;49.426;2023-08-31T07:22:35;4.00;;;1.75;;
67191;SDS011;54120;53.504;49.426;2023-08-31T07:25:01;2.97;;;1.58;;
67191;SDS011;54120;53.504;49.426;2023-08-31T07:27:29;1.92;;;1.70;;
67191;SDS011;54120;53.504;49.426;2023-08-31T07:29:55;1.60;;;1.50;;
67191;SDS011;54120;53.504;49.426;2023-08-31T07:32:21;2.45;;;1.75;;
67191;SDS011;54120;53.504;49.426;2023-08-31T07:34:47;2.42;;;1.60;;
67191;SDS011;54120;53.504;49.426;2023-08-31T07:37:14;2.13;;;1.85;;
67191;SDS011;54120;53.504;49.426;2023-08-31T07:39:40;1.63;;;1.50;;
67191;SDS011;54120;53.504;49.426;2023-08-31T07:42:06;2.35;;;1.60;;
67191;SDS011;54120;53.504;49.426;2023-08-31T07:44:32;3.72;;;1.80;;
67191;SDS011;54120;53.504;49.426;2023-08-31T07:46:58;1.73;;;1.63;;
67191;SDS011;54120;53.504;49.426;2023-08-31T07:49:24;5.65;;;2.03;;
67191;SDS011;54120;53.504;49.426;2023-08-31T07:51:50;4.63;;;2.13;;
67191;SDS011;54120;53.504;49.426;2023-08-31T07:54:20;3.67;;;2.05;;
67191;SDS011;54120;53.504;49.426;2023-08-31T07:56:46;2.63;;;2.50;;
67191;SDS011;54120;53.504;49.426;2023-08-31T07:59:12;2.75;;;1.85;;
67191;SDS011;54120;53.504;49.426;2023-08-31T08:01:38;2.85;;;1.92;;
67191;SDS011;54120;53.504;49.426;2023-08-31T08:04:04;4.13;;;1.80;;
67191;SDS011;54120;53.504;49.426;2023-08-31T08:06:30;1.80;;;1.55;;
67191;SDS011;54120;53.504;49.426;2023-08-31T08:08:56;3.58;;;1.73;;
67191;SDS011;54120;53.504;49.426;2023-08-31T08:11:22;2.08;;;1.90;;
67191;SDS011;54120;53.504;49.426;2023-08-31T08:13:48;2.22;;;1.90;;
67191;SDS011;54120;53.504;49.426;2023-08-31T08:16:14;3.60;;;2.13;;
67191;SDS011;54120;53.504;49.426;2023-08-31T08:18:40;3.42;;;1.80;;
67191;SDS011;54120;53.504;49.426;2023-08-31T08:21:06;2.00;;;1.75;;
67191;SDS011;54120;53.504;49.426;2023-08-31T08:23:32;2.13;;;2.00;;
67191;SDS011;54120;53.504;49.426;2023-08-31T08:25:58;3.50;;;1.80;;
67191;SDS011;54120;53.504;49.426;2023-08-31T08:28:25;2.15;;;1.90;;
67191;SDS011;54120;53.504;49.426;2023-08-31T08:30:52;3.88;;;1.88;;
67191;SDS011;54120;53.504;49.426;2023-08-31T08:33:18;2.00;;;1.80;;
67191;SDS011;54120;53.504;49.426;2023-08-31T08:35:44;1.90;;;1.80;;
67191;SDS011;54120;53.504;49.426;2023-08-31T08:38:10;2.58;;;1.88;;
67191;SDS011;54120;53.504;49.426;2023-08-31T08:40:36;1.95;;;1.85;;
67191;SDS011;54120;53.504;49.426;2023-08-31T08:43:05;3.58;;;2.00;;
67191;SDS011;54120;53.504;49.426;2023-08-31T08:45:39;3.30;;;1.90;;
67191;SDS011;54120;53.504;49.426;2023-08-31T08:48:07;2.10;;;2.00;;
67191;SDS011;54120;53.504;49.426;2023-08-31T08:50:35;2.47;;;2.10;;
67191;SDS011;54120;53.504;49.426;2023-08-31T08:53:02;1.80;;;1.70;;
67191;SDS011;54120;53.504;49.426;2023-08-31T08:55:29;4.88;;;1.80;;
67191;SDS011;54120;53.504;49.426;2023-08-31T08:57:55;1.90;;;1.80;;
67191;SDS011;54120;53.504;49.426;2023-08-31T09:00:23;3.15;;;1.80;;
67191;SDS011;54120;53.504;49.426;2023-08-31T09:02:49;3.85;;;2.00;;
67191;SDS011;54120;53.504;49.426;2023-08-31T09:05:15;1.65;;;1.55;;
67191;SDS011;54120;53.504;49.426;2023-08-31T09:08:00;3.95;;;1.98;;
67191;SDS011;54120;53.504;49.426;2023-08-31T09:13:28;7.20;;;1.90;;
67191;SDS011;54120;53.504;49.426;2023-08-31T09:15:55;4.20;;;1.70;;
67191;SDS011;54120;53.504;49.426;2023-08-31T09:18:26;2.00;;;1.90;;
67191;SDS011;54120;53.504;49.426;2023-08-31T09:20:54;2.72;;;1.80;;
67191;SDS011;54120;53.504;49.426;2023-08-31T09:23:24;2.25;;;1.90;;
67191;SDS011;54120;53.504;49.426;2023-08-31T09:25:51;3.08;;;1.98;;
67191;SDS011;54120;53.504;49.426;2023-08-31T09:28:21;4.60;;;1.90;;
67191;SDS011;54120;53.504;49.426;2023-08-31T09:30:50;2.20;;;2.00;;
67191;SDS011;54120;53.504;49.426;2023-08-31T09:33:18;5.05;;;2.17;;
67191;SDS011;54120;53.504;49.426;2023-08-31T09:35:52;2.58;;;1.85;;
67191;SDS011;54120;53.504;49.426;2023-08-31T09:38:19;7.18;;;2.10;;
67191;SDS011;54120;53.504;49.426;2023-08-31T09:40:46;6.57;;;2.10;;
67191;SDS011;54120;53.504;49.426;2023-08-31T09:43:19;1.85;;;1.70;;
67191;SDS011;54120;53.504;49.426;2023-08-31T09:45:46;2.65;;;2.00;;
67191;SDS011;54120;53.504;49.426;2023-08-31T09:48:13;1.83;;;1.73;;
67191;SDS011;54120;53.504;49.426;2023-08-31T09:50:41;3.08;;;2.00;;
67191;SDS011;54120;53.504;49.426;2023-08-31T09:53:10;3.95;;;2.00;;
67191;SDS011;54120;53.504;49.426;2023-08-31T09:55:38;3.45;;;2.20;;
67191;SDS011;54120;53.504;49.426;2023-08-31T09:58:06;2.72;;;2.05;;
67191;SDS011;54120;53.504;49.426;2023-08-31T10:00:35;3.83;;;2.05;;
67191;SDS011;54120;53.504;49.426;2023-08-31T10:03:03;3.85;;;2.35;;
67191;SDS011;54120;53.504;49.426;2023-08-31T10:05:30;3.58;;;2.20;;
67191;SDS011;54120;53.504;49.426;2023-08-31T10:07:58;3.83;;;2.33;;
67191;SDS011;54120;53.504;49.426;2023-08-31T10:10:25;3.13;;;2.10;;
67191;SDS011;54120;53.504;49.426;2023-08-31T10:12:53;5.07;;;2.13;;
67191;SDS011;54120;53.504;49.426;2023-08-31T10:15:19;2.35;;;2.15;;
67191;SDS011;54120;53.504;49.426;2023-08-31T10:17:46;3.30;;;1.95;;
67191;SDS011;54120;53.504;49.426;2023-08-31T10:20:13;4.30;;;2.10;;
67191;SDS011;54120;53.504;49.426;2023-08-31T10:22:41;5.65;;;2.20;;
67191;SDS011;54120;53.504;49.426;2023-08-31T10:25:08;3.33;;;1.92;;
67191;SDS011;54120;53.504;49.426;2023-08-31T10:27:38;3.00;;;2.10;;
67191;SDS011;54120;53.504;49.426;2023-08-31T10:43:49;2.33;;;1.95;;
67191;SDS011;54120;53.504;49.426;2023-08-31T10:46:32;3.22;;;1.92;;
67191;SDS011;54120;53.504;49.426;2023-08-31T10:51:49;3.92;;;2.08;;
67191;SDS011;54120;53.504;49.426;2023-08-31T10:54:22;6.00;;;3.33;;
67191;SDS011;54120;53.504;49.426;2023-08-31T10:59:18;4.82;;;3.13;;
67191;SDS011;54120;53.504;49.426;2023-08-31T11:01:52;6.95;;;2.20;;
67191;SDS011;54120;53.504;49.426;2023-08-31T11:04:22;2.60;;;2.40;;
67191;SDS011;54120;53.504;49.426;2023-08-31T11:10:10;3.88;;;1.80;;
67191;SDS011;54120;53.504;49.426;2023-08-31T11:12:39;2.85;;;2.10;;
67191;SDS011;54120;53.504;49.426;2023-08-31T11:15:06;2.55;;;2.13;;
67191;SDS011;54120;53.504;49.426;2023-08-31T11:17:33;3.30;;;2.25;;
67191;SDS011;54120;53.504;49.426;2023-08-31T11:20:00;5.70;;;2.20;;
67191;SDS011;54120;53.504;49.426;2023-08-31T11:22:30;3.58;;;2.20;;
67191;SDS011;54120;53.504;49.426;2023-08-31T11:24:57;2.78;;;2.30;;
67191;SDS011;54120;53.504;49.426;2023-08-31T11:27:24;6.65;;;2.20;;
67191;SDS011;54120;53.504;49.426;2023-08-31T11:29:51;5.18;;;2.40;;
67191;SDS011;54120;53.504;49.426;2023-08-31T11:32:17;2.22;;;2.03;;
67191;SDS011;54120;53.504;49.426;2023-08-31T11:34:43;4.28;;;1.98;;
67191;SDS011;54120;53.504;49.426;2023-08-31T11:37:11;4.78;;;2.60;;
67191;SDS011;54120;53.504;49.426;2023-08-31T11:39:42;5.70;;;3.10;;
67191;SDS011;54120;53.504;49.426;2023-08-31T11:42:15;2.05;;;1.92;;
67191;SDS011;54120;53.504;49.426;2023-08-31T11:44:44;2.97;;;2.28;;
67191;SDS011;54120;53.504;49.426;2023-08-31T11:47:15;3.88;;;2.70;;
67191;SDS011;54120;53.504;49.426;2023-08-31T11:49:42;6.32;;;3.00;;
67191;SDS011;54120;53.504;49.426;2023-08-31T11:52:10;7.00;;;2.17;;
67191;SDS011;54120;53.504;49.426;2023-08-31T11:54:37;5.05;;;2.40;;
67191;SDS011;54120;53.504;49.426;2023-08-31T11:57:08;2.40;;;2.20;;
67191;SDS011;54120;53.504;49.426;2023-08-31T11:59:35;2.22;;;2.00;;
67191;SDS011;54120;53.504;49.426;2023-08-31T12:02:06;2.03;;;1.90;;
67191;SDS011;54120;53.504;49.426;2023-08-31T12:04:45;3.45;;;2.10;;
67191;SDS011;54120;53.504;49.426;2023-08-31T12:07:15;2.92;;;1.80;;
67191;SDS011;54120;53.504;49.426;2023-08-31T12:09:42;5.72;;;1.98;;
67191;SDS011;54120;53.504;49.426;2023-08-31T12:12:10;2.20;;;2.05;;
67191;SDS011;54120;53.504;49.426;2023-08-31T12:14:37;3.65;;;2.95;;
67191;SDS011;54120;53.504;49.426;2023-08-31T12:17:05;6.10;;;2.92;;
67191;SDS011;54120;53.504;49.426;2023-08-31T12:19:32;2.45;;;2.20;;
67191;SDS011;54120;53.504;49.426;2023-08-31T12:22:01;3.60;;;2.28;;
67191;SDS011;54120;53.504;49.426;2023-08-31T12:24:28;1.95;;;1.80;;
67191;SDS011;54120;53.504;49.426;2023-08-31T12:26:53;3.03;;;2.35;;
67191;SDS011;54120;53.504;49.426;2023-08-31T12:29:20;2.25;;;2.03;;
67191;SDS011;54120;53.504;49.426;2023-08-31T12:31:47;2.03;;;1.80;;
67191;SDS011;54120;53.504;49.426;2023-08-31T12:34:14;2.63;;;2.42;;
67191;SDS011;54120;53.504;49.426;2023-08-31T12:36:40;3.10;;;1.90;;
67191;SDS011;54120;53.504;49.426;2023-08-31T12:39:09;5.85;;;2.00;;
67191;SDS011;54120;53.504;49.426;2023-08-31T12:41:36;2.92;;;2.00;;
67191;SDS011;54120;53.504;49.426;2023-08-31T12:44:03;4.28;;;2.10;;
67191;SDS011;54120;53.504;49.426;2023-08-31T12:46:29;3.20;;;2.25;;
67191;SDS011;54120;53.504;49.426;2023-08-31T12:48:56;5.47;;;2.58;;
67191;SDS011;54120;53.504;49.426;2023-08-31T12:51:22;4.80;;;2.50;;
67191;SDS011;54120;53.504;49.426;2023-08-31T12:53:48;2.20;;;2.00;;
67191;SDS011;54120;53.504;49.426;2023-08-31T12:56:14;6.72;;;2.88;;
67191;SDS011;54120;53.504;49.426;2023-08-31T12:58:50;2.33;;;2.00;;
67191;SDS011;54120;53.504;49.426;2023-08-31T13:01:17;5.40;;;2.20;;
67191;SDS011;54120;53.504;49.426;2023-08-31T13:03:45;2.78;;;2.20;;
67191;SDS011;54120;53.504;49.426;2023-08-31T13:06:11;5.13;;;2.00;;
67191;SDS011;54120;53.504;49.426;2023-08-31T13:08:37;3.15;;;2.47;;
67191;SDS011;54120;53.504;49.426;2023-08-31T13:11:03;4.25;;;2.35;;
67191;SDS011;54120;53.504;49.426;2023-08-31T13:13:32;3.53;;;1.90;;
67191;SDS011;54120;53.504;49.426;2023-08-31T13:15:58;5.43;;;2.00;;
67191;SDS011;54120;53.504;49.426;2023-08-31T13:18:24;4.97;;;1.60;;
67191;SDS011;54120;53.504;49.426;2023-08-31T13:20:54;7.00;;;2.30;;
67191;SDS011;54120;53.504;49.426;2023-08-31T13:23:23;4.85;;;1.67;;
67191;SDS011;54120;53.504;49.426;2023-08-31T13:25:50;5.20;;;1.83;;
67191;SDS011;54120;53.504;49.426;2023-08-31T13:28:16;2.13;;;1.70;;
67191;SDS011;54120;53.504;49.426;2023-08-31T13:30:43;2.30;;;2.10;;
67191;SDS011;54120;53.504;49.426;2023-08-31T13:33:09;3.20;;;1.90;;
67191;SDS011;54120;53.504;49.426;2023-08-31T13:35:35;4.70;;;2.20;;
67191;SDS011;54120;53.504;49.426;2023-08-31T13:38:01;3.00;;;2.50;;
67191;SDS011;54120;53.504;49.426;2023-08-31T13:40:28;6.45;;;2.30;;
67191;SDS011;54120;53.504;49.426;2023-08-31T13:42:56;2.30;;;2.10;;
67191;SDS011;54120;53.504;49.426;2023-08-31T13:45:29;3.83;;;2.10;;
67191;SDS011;54120;53.504;49.426;2023-08-31T13:47:56;3.00;;;1.80;;
67191;SDS011;54120;53.504;49.426;2023-08-31T13:50:26;2.47;;;2.17;;
67191;SDS011;54120;53.504;49.426;2023-08-31T13:52:53;4.20;;;2.85;;
67191;SDS011;54120;53.504;49.426;2023-08-31T13:55:19;5.32;;;2.50;;
67191;SDS011;54120;53.504;49.426;2023-08-31T13:57:45;3.83;;;2.50;;
67191;SDS011;54120;53.504;49.426;2023-08-31T14:00:15;3.33;;;1.77;;
67191;SDS011;54120;53.504;49.426;2023-08-31T14:02:43;2.15;;;1.88;;
67191;SDS011;54120;53.504;49.426;2023-08-31T14:05:09;2.42;;;1.77;;
67191;SDS011;54120;53.504;49.426;2023-08-31T14:07:36;3.17;;;1.90;;
67191;SDS011;54120;53.504;49.426;2023-08-31T14:10:03;5.20;;;1.98;;
67191;SDS011;54120;53.504;49.426;2023-08-31T14:12:31;3.42;;;2.08;;
67191;SDS011;54120;53.504;49.426;2023-08-31T14:14:57;5.88;;;1.70;;
67191;SDS011;54120;53.504;49.426;2023-08-31T14:17:23;1.98;;;1.70;;
67191;SDS011;54120;53.504;49.426;2023-08-31T14:19:49;1.90;;;1.80;;
67191;SDS011;54120;53.504;49.426;2023-08-31T14:22:15;2.67;;;2.17;;
67191;SDS011;54120;53.504;49.426;2023-08-31T14:24:42;3.83;;;2.40;;
67191;SDS011;54120;53.504;49.426;2023-08-31T14:27:08;5.45;;;2.28;;
67191;SDS011;54120;53.504;49.426;2023-08-31T14:29:34;3.75;;;2.17;;
67191;SDS011;54120;53.504;49.426;2023-08-31T14:32:02;3.40;;;1.80;;
67191;SDS011;54120;53.504;49.426;2023-08-31T14:34:28;3.85;;;2.08;;
67191;SDS011;54120;53.504;49.426;2023-08-31T14:36:54;2.45;;;2.22;;
67191;SDS011;54120;53.504;49.426;2023-08-31T14:39:22;3.30;;;2.33;;
67191;SDS011;54120;53.504;49.426;2023-08-31T14:41:57;5.50;;;2.38;;
67191;SDS011;54120;53.504;49.426;2023-08-31T14:44:24;5.18;;;2.50;;
67191;SDS011;54120;53.504;49.426;2023-08-31T14:46:50;4.63;;;2.20;;
67191;SDS011;54120;53.504;49.426;2023-08-31T14:49:16;3.08;;;2.05;;
67191;SDS011;54120;53.504;49.426;2023-08-31T14:51:42;3.38;;;1.90;;
67191;SDS011;54120;53.504;49.426;2023-08-31T14:54:09;6.88;;;2.40;;
67191;SDS011;54120;53.504;49.426;2023-08-31T14:56:35;2.42;;;2.22;;
67191;SDS011;54120;53.504;49.426;2023-08-31T14:59:01;4.72;;;2.70;;
67191;SDS011;54120;53.504;49.426;2023-08-31T15:01:27;3.25;;;2.60;;
67191;SDS011;54120;53.504;49.426;2023-08-31T15:03:54;6.57;;;3.10;;